Devils Lake, ND

1:23 AM CST on February 08, 2016 (GMT -0600)
Devils Lake Municipal | | Change Station
CLOSE
Current Station
Airport
Location: Devils Lake,
Elevation: 1453 ft
Nearby Weather Stations
Active Advisory: Wind Advisory

Elev 1453 ft 48.11 °N, 98.91 °W | Updated 27 minutes ago

Light Snow
Light Snow
18 °F
Feels Like 2 °F
N
18
Wind Variable Wind from North

Today
High -- | Low -- °F
--% Chance of Precip.
Yesterday
High -- | Low -- °F
Precip. -- in
Pressure 30.22 in
Visibility 9.0 miles
Clouds Mostly Cloudy 2000 ft
Overcast 2600 ft
Windchill 2 °F
Dew Point 14 °F
Humidity 84%
Rainfall 0.00 in
Snow Depth Not available.
7:54 AM 5:46 PM
Waning Crescent, 0% visible
METAR KDVL 080656Z AUTO 35016KT 9SM -SN BKN020 OVC026 M08/M10 A3010 RMK AO2 PK WND 34027/0557 SLP234 P0000 T10781100 FZRANO
Pressure 30.22 in
Visibility 9.0 miles
Clouds Mostly Cloudy 2000 ft
Overcast 2600 ft
Windchill 2 °F
Dew Point 14 °F
Humidity 84%
Rainfall 0.00 in
Snow Depth Not available.
7:54 AM 5:46 PM
Waning Crescent, 0% visible
METAR KDVL 080656Z AUTO 35016KT 9SM -SN BKN020 OVC026 M08/M10 A3010 RMK AO2 PK WND 34027/0557 SLP234 P0000 T10781100 FZRANO

10-Day Weather Forecast

Almanac

Astronomy

Feb. 08, 2016 Rise Set
Actual Time
Civil Twilight
Nautical Twilight
Astronomical Twilight
Moon
Length of Visible Light
Length of Day
Tomorrow will be .
, % of the Moon is Illuminated

Today's Extremes

State Highs State Lows

Community

WunderPhotos

Upload Photos

1,891,394 photos uploaded!

WunderBlog® & News

Nearby

Air Quality

  Air Quality AQ Index Pollutant
Not available.

Snow Depth

Station Depth Elevation

Earthquake Activity

City Distance Mag. Time & Date
Minimum magnitude displayed is 2.5.

Coastal Water Temperatures

Place Temperature

Stations

Nearby Weather Stations

Station Location Temp. Windchill Dew Point Humidity Wind Precip. Elev Updated Type
                   

Watches & Warnings

Wind Advisory
Issued: 9:34 PM CST Feb. 7, 2016 – National Weather Service

... Wind Advisory in effect until 6 am CST Monday...
... High Wind Warning is cancelled...

The National Weather Service in Grand Forks has issued a Wind
Advisory... which is in effect until 6 am CST Monday. The High
Wind Warning has been cancelled.

* Winds... northwest 30 to 35 mph with gusts up to 45 mph.

* Timing... winds will gradually diminish throughout the night.

* Impacts... isolated snow showers combined with the gusty winds
will reduce visibility in open country. Visibility may be
briefly reduced to around one half mile.

Precautionary/preparedness actions...

A Wind Advisory means that sustained winds of 30 mph or gusts
over 45 mph are expected. Winds this strong can make driving
difficult... especially for high profile vehicles. Use extra
caution.


Speicher